createdAt,value
2023-01-17T00:00:56.781Z,26.90
2023-01-17T00:03:53.794Z,24.20
2023-01-17T00:06:54.521Z,19.43
2023-01-17T00:09:57.029Z,19.13
2023-01-17T00:12:40.166Z,23.77
2023-01-17T00:15:27.835Z,19.93
2023-01-17T00:18:10.922Z,22.67
2023-01-17T00:21:11.243Z,22.37
2023-01-17T00:24:16.874Z,19.30
2023-01-17T00:27:13.827Z,25.23
2023-01-17T00:29:55.902Z,29.80
2023-01-17T00:32:41.789Z,30.13
2023-01-17T00:35:25.068Z,28.20
2023-01-17T00:38:09.746Z,25.70
2023-01-17T00:40:52.104Z,26.23
2023-01-17T00:43:52.933Z,24.27
2023-01-17T00:46:53.456Z,29.03
2023-01-17T00:49:55.673Z,24.43
2023-01-17T00:52:58.966Z,24.70
2023-01-17T00:55:59.019Z,22.93
2023-01-17T00:59:01.903Z,22.00
2023-01-17T01:02:02.654Z,27.47
2023-01-17T01:05:04.684Z,22.17
2023-01-17T01:08:05.257Z,24.87
2023-01-17T01:11:07.142Z,25.90
2023-01-17T01:14:07.524Z,23.50
2023-01-17T01:17:07.849Z,26.00
2023-01-17T01:20:10.783Z,24.57
2023-01-17T01:23:11.453Z,29.47
2023-01-17T01:26:12.379Z,24.27
2023-01-17T01:29:13.065Z,26.43
2023-01-17T01:32:13.535Z,25.40
2023-01-17T01:34:58.189Z,28.87
2023-01-17T01:37:41.277Z,25.17
2023-01-17T01:40:24.671Z,25.27
2023-01-17T01:43:07.762Z,25.30
2023-01-17T01:45:54.890Z,26.20
2023-01-17T01:48:45.551Z,24.17
2023-01-17T01:51:35.976Z,27.17
2023-01-17T01:54:22.418Z,26.80
2023-01-17T01:57:08.375Z,30.37
2023-01-17T01:59:57.433Z,26.77
2023-01-17T02:02:42.535Z,26.37
2023-01-17T02:05:28.474Z,24.03
2023-01-17T02:08:19.266Z,25.60
2023-01-17T02:11:03.382Z,25.57
2023-01-17T02:13:46.563Z,27.97
2023-01-17T02:16:50.072Z,25.70
2023-01-17T02:20:09.903Z,26.33
2023-01-17T02:23:23.667Z,26.70
2023-01-17T02:26:35.676Z,28.43
2023-01-17T02:29:54.696Z,27.57
2023-01-17T02:32:49.321Z,28.00
2023-01-17T02:35:39.991Z,24.60
2023-01-17T02:38:35.314Z,24.77
2023-01-17T02:41:23.251Z,25.87
2023-01-17T02:44:09.204Z,29.37
2023-01-17T02:46:54.930Z,24.13
2023-01-17T02:49:39.397Z,21.80
2023-01-17T02:52:38.741Z,22.50
2023-01-17T02:55:29.275Z,23.43
2023-01-17T02:58:33.939Z,26.23
2023-01-17T03:01:26.656Z,24.67
2023-01-17T03:04:18.724Z,26.50
2023-01-17T03:07:07.357Z,23.97
2023-01-17T03:09:54.633Z,24.70
2023-01-17T03:12:39.597Z,24.97
2023-01-17T03:15:22.733Z,23.47
2023-01-17T03:18:11.757Z,25.50
2023-01-17T03:20:54.856Z,23.40
2023-01-17T03:23:39.562Z,20.53
2023-01-17T03:26:24.711Z,19.20
2023-01-17T03:29:07.969Z,22.90
2023-01-17T03:31:51.093Z,25.03
2023-01-17T03:34:34.211Z,22.93
2023-01-17T03:37:17.376Z,20.73
2023-01-17T03:40:01.895Z,23.73
2023-01-17T03:42:45.256Z,24.57
2023-01-17T03:45:28.347Z,23.47
2023-01-17T03:48:11.892Z,22.50
2023-01-17T03:50:54.973Z,24.43
2023-01-17T03:53:38.095Z,25.87
2023-01-17T03:56:27.195Z,29.00
2023-01-17T03:59:13.089Z,32.27
2023-01-17T04:01:58.692Z,25.63
2023-01-17T04:04:41.900Z,29.43
2023-01-17T04:07:25.090Z,28.60
2023-01-17T04:10:08.880Z,30.00
2023-01-17T04:12:53.607Z,27.57
2023-01-17T04:15:36.864Z,29.63
2023-01-17T04:18:23.136Z,30.43
2023-01-17T04:21:07.834Z,26.03
2023-01-17T04:23:51.068Z,25.07
2023-01-17T04:26:34.173Z,25.37
2023-01-17T04:29:21.451Z,26.23
2023-01-17T04:32:06.949Z,24.47
2023-01-17T04:34:50.070Z,25.93
2023-01-17T04:37:33.066Z,24.70
2023-01-17T04:40:19.484Z,22.07
2023-01-17T04:43:02.528Z,22.37
2023-01-17T04:45:47.020Z,25.50
2023-01-17T04:48:31.502Z,24.23
2023-01-17T04:51:15.764Z,24.30
2023-01-17T04:53:58.848Z,24.00
2023-01-17T04:56:41.959Z,22.87
2023-01-17T04:59:25.050Z,24.63
2023-01-17T05:02:10.909Z,22.13
2023-01-17T05:04:54.063Z,23.17
2023-01-17T05:07:37.169Z,21.80
2023-01-17T05:10:22.973Z,18.80
2023-01-17T05:13:06.512Z,23.80
2023-01-17T05:15:49.703Z,20.40
2023-01-17T05:18:34.303Z,22.60
2023-01-17T05:21:17.358Z,17.13
2023-01-17T05:24:00.678Z,16.13
2023-01-17T05:26:46.255Z,18.47
2023-01-17T05:29:29.405Z,22.27
2023-01-17T05:32:16.796Z,21.10
2023-01-17T05:35:03.522Z,21.13
2023-01-17T05:37:49.224Z,29.00
2023-01-17T05:40:34.246Z,21.97
2023-01-17T05:43:17.484Z,20.47
2023-01-17T05:46:00.699Z,20.73
2023-01-17T05:48:43.821Z,22.67
2023-01-17T05:51:30.946Z,22.80
2023-01-17T05:54:14.110Z,32.97
2023-01-17T05:56:57.155Z,39.63
2023-01-17T05:59:42.555Z,51.40
2023-01-17T06:02:25.744Z,56.10
2023-01-17T06:05:09.461Z,37.60
2023-01-17T06:07:56.611Z,28.97
2023-01-17T06:10:39.902Z,24.90
2023-01-17T06:13:23.268Z,16.30
2023-01-17T06:16:06.658Z,17.63
2023-01-17T06:18:52.423Z,24.53
2023-01-17T06:21:44.164Z,20.47
2023-01-17T06:24:30.484Z,24.67
2023-01-17T06:27:13.639Z,21.63
2023-01-17T06:29:56.738Z,15.40
2023-01-17T06:32:42.243Z,16.07
2023-01-17T06:35:25.615Z,10.83
2023-01-17T06:38:10.074Z,14.03
2023-01-17T06:40:55.071Z,11.67
2023-01-17T06:43:40.861Z,12.17
2023-01-17T06:46:26.676Z,11.30
2023-01-17T06:49:09.784Z,12.03
2023-01-17T06:51:52.880Z,14.67
2023-01-17T06:54:36.008Z,13.07
2023-01-17T06:57:20.521Z,16.87
2023-01-17T07:00:04.549Z,14.57
2023-01-17T07:02:50.271Z,16.83
2023-01-17T07:05:33.353Z,20.97
2023-01-17T07:08:17.176Z,20.07
2023-01-17T07:11:01.605Z,15.77
2023-01-17T07:13:46.074Z,13.43
2023-01-17T07:16:29.789Z,16.63
2023-01-17T07:19:13.379Z,11.73
2023-01-17T07:21:56.745Z,11.40
2023-01-17T07:24:42.468Z,15.60
2023-01-17T07:27:27.220Z,11.63
2023-01-17T07:30:14.360Z,13.60
2023-01-17T07:32:57.817Z,13.03
2023-01-17T07:35:41.529Z,16.03
2023-01-17T07:38:24.805Z,15.23
2023-01-17T07:41:09.863Z,17.00
2023-01-17T07:43:56.373Z,14.00
2023-01-17T07:46:41.581Z,20.83
2023-01-17T07:49:26.700Z,20.33
2023-01-17T07:52:09.917Z,14.20
2023-01-17T07:54:54.150Z,13.63
2023-01-17T07:57:37.274Z,14.47
2023-01-17T08:00:23.179Z,16.20
2023-01-17T08:03:07.743Z,16.27
2023-01-17T08:05:56.333Z,17.40
2023-01-17T08:08:39.396Z,15.87
2023-01-17T08:11:22.546Z,17.87
2023-01-17T08:14:08.213Z,16.03
2023-01-17T08:16:51.300Z,17.63
2023-01-17T08:19:35.836Z,20.17
2023-01-17T08:22:19.038Z,21.27
2023-01-17T08:25:02.092Z,22.47
2023-01-17T08:27:45.294Z,11.63
2023-01-17T08:30:28.897Z,10.33
2023-01-17T08:33:12.079Z,13.87
2023-01-17T08:35:56.642Z,11.23
2023-01-17T08:38:39.819Z,17.70
2023-01-17T08:41:23.804Z,14.37
2023-01-17T08:44:07.513Z,15.43
2023-01-17T08:46:51.013Z,15.37
2023-01-17T08:49:34.148Z,13.73
2023-01-17T08:52:18.665Z,17.80
2023-01-17T08:55:04.375Z,10.03
2023-01-17T08:57:47.910Z,10.67
2023-01-17T09:00:33.959Z,10.87
2023-01-17T09:03:19.804Z,9.50
2023-01-17T09:06:04.507Z,11.13
2023-01-17T09:08:49.819Z,8.20
2023-01-17T09:11:33.226Z,10.97
2023-01-17T09:14:17.030Z,21.10
2023-01-17T09:17:02.539Z,20.43
2023-01-17T09:19:47.671Z,21.07
2023-01-17T09:22:30.789Z,22.33
2023-01-17T09:25:17.363Z,21.93
2023-01-17T09:28:00.501Z,24.23
2023-01-17T09:30:48.703Z,23.90
2023-01-17T09:33:31.902Z,13.77
2023-01-17T09:36:15.266Z,16.70
2023-01-17T09:39:01.020Z,18.73
2023-01-17T09:41:53.301Z,20.57
2023-01-17T09:44:43.235Z,15.47
2023-01-17T09:47:35.565Z,9.53
2023-01-17T09:50:29.794Z,12.93
2023-01-17T09:53:16.103Z,10.93
2023-01-17T09:56:02.289Z,24.10
2023-01-17T09:58:53.837Z,17.73
2023-01-17T10:01:44.525Z,11.80
2023-01-17T10:04:49.093Z,9.40
2023-01-17T10:07:44.976Z,13.73
2023-01-17T10:10:38.607Z,14.30
2023-01-17T10:13:35.506Z,17.83
2023-01-17T10:16:35.191Z,10.97
2023-01-17T10:19:36.245Z,10.97
2023-01-17T10:22:34.789Z,11.57
2023-01-17T10:25:33.200Z,9.70
2023-01-17T10:28:18.535Z,7.50
2023-01-17T10:31:07.520Z,6.20
2023-01-17T10:33:55.089Z,8.27
2023-01-17T10:36:43.146Z,7.83
2023-01-17T10:39:29.643Z,7.30
2023-01-17T10:42:21.443Z,6.90
2023-01-17T10:45:08.909Z,7.00
2023-01-17T10:48:01.543Z,7.53
2023-01-17T10:50:55.120Z,7.53
2023-01-17T10:53:50.928Z,7.90
2023-01-17T10:56:35.793Z,7.73
2023-01-17T10:59:28.291Z,9.53
2023-01-17T11:02:31.627Z,6.60
2023-01-17T11:05:25.437Z,8.70
2023-01-17T11:08:11.401Z,6.87
2023-01-17T11:10:56.401Z,8.13
2023-01-17T11:13:40.055Z,6.67
2023-01-17T11:16:27.536Z,7.63
2023-01-17T11:19:18.482Z,8.53
2023-01-17T11:22:05.990Z,7.30
2023-01-17T11:24:54.027Z,6.63
2023-01-17T11:27:43.520Z,7.87
2023-01-17T11:30:29.632Z,11.03
2023-01-17T11:33:50.560Z,6.93
2023-01-17T11:36:36.286Z,11.43
2023-01-17T11:39:30.725Z,7.13
2023-01-17T11:42:37.321Z,8.73
2023-01-17T11:45:25.959Z,7.50
2023-01-17T11:48:15.508Z,9.07
2023-01-17T11:51:04.522Z,10.03
2023-01-17T11:53:49.279Z,9.27
2023-01-17T11:56:34.531Z,10.10
2023-01-17T11:59:39.015Z,8.73
2023-01-17T12:02:44.500Z,11.27
2023-01-17T12:05:41.694Z,11.83
2023-01-17T12:08:42.158Z,8.00
2023-01-17T12:11:36.176Z,10.47
2023-01-17T12:14:31.754Z,7.67
2023-01-17T12:17:25.265Z,10.93
2023-01-17T12:20:22.630Z,10.93
2023-01-17T12:23:25.415Z,8.83
2023-01-17T12:26:26.641Z,9.43
2023-01-17T12:29:39.156Z,11.87
2023-01-17T12:32:40.617Z,7.43
2023-01-17T12:35:29.003Z,9.27
2023-01-17T12:38:31.310Z,12.83
2023-01-17T12:41:22.440Z,12.47
2023-01-17T12:44:06.148Z,7.73
2023-01-17T12:46:56.004Z,8.30
2023-01-17T12:49:48.223Z,11.73
2023-01-17T12:52:46.502Z,8.97
2023-01-17T12:55:38.616Z,16.13
2023-01-17T12:58:26.138Z,8.50
2023-01-17T13:01:21.065Z,15.27
2023-01-17T13:04:17.812Z,11.90
2023-01-17T13:07:14.102Z,10.13
2023-01-17T13:10:03.973Z,7.20
2023-01-17T13:12:49.905Z,7.40
2023-01-17T13:15:42.707Z,12.70
2023-01-17T13:18:29.961Z,10.07
2023-01-17T13:21:31.506Z,8.93
2023-01-17T13:24:23.954Z,9.30
2023-01-17T13:27:59.253Z,7.70
2023-01-17T13:31:19.080Z,6.33
2023-01-17T13:34:40.031Z,6.77
2023-01-17T13:37:41.464Z,10.50
2023-01-17T13:40:50.168Z,7.47
2023-01-17T13:44:06.215Z,6.63
2023-01-17T13:47:02.805Z,8.50
2023-01-17T13:49:48.589Z,9.57
2023-01-17T13:52:35.669Z,7.07
2023-01-17T13:55:47.692Z,11.47
2023-01-17T13:58:33.434Z,8.00
2023-01-17T14:01:17.074Z,7.57
2023-01-17T14:04:09.504Z,8.07
2023-01-17T14:07:05.551Z,7.23
2023-01-17T14:09:52.812Z,7.23
2023-01-17T14:12:36.678Z,8.50
2023-01-17T14:15:25.050Z,5.87
2023-01-17T14:18:34.458Z,12.93
2023-01-17T14:21:26.475Z,8.17
2023-01-17T14:24:17.828Z,12.23
2023-01-17T14:27:20.897Z,11.77
2023-01-17T14:30:04.957Z,7.97
2023-01-17T14:33:13.716Z,8.57
2023-01-17T14:35:59.971Z,11.47
2023-01-17T14:38:46.321Z,9.37
2023-01-17T14:41:30.811Z,7.30
2023-01-17T14:44:17.212Z,12.07
2023-01-17T14:47:00.464Z,10.10
2023-01-17T14:49:44.249Z,8.93
2023-01-17T14:52:27.719Z,9.03
2023-01-17T14:55:18.692Z,10.37
2023-01-17T14:58:05.325Z,7.73
2023-01-17T15:00:57.633Z,15.20
2023-01-17T15:03:49.393Z,17.50
2023-01-17T15:06:38.671Z,14.67
2023-01-17T15:09:24.232Z,17.93
2023-01-17T15:12:13.889Z,17.67
2023-01-17T15:15:01.196Z,14.03
2023-01-17T15:17:44.462Z,16.20
2023-01-17T15:20:28.403Z,15.03
2023-01-17T15:23:20.370Z,14.77
2023-01-17T15:26:05.545Z,12.60
2023-01-17T15:28:51.499Z,20.30
2023-01-17T15:31:43.603Z,16.07
2023-01-17T15:34:29.511Z,17.47
2023-01-17T15:37:25.940Z,17.63
2023-01-17T15:40:20.050Z,16.63
2023-01-17T15:43:05.530Z,16.40
2023-01-17T15:46:01.746Z,18.00
2023-01-17T15:48:45.575Z,16.57
2023-01-17T15:51:42.092Z,15.07
2023-01-17T15:54:44.921Z,18.30
2023-01-17T15:57:31.009Z,15.13
2023-01-17T16:00:26.430Z,22.83
2023-01-17T16:03:28.945Z,24.33
2023-01-17T16:06:32.416Z,24.17
2023-01-17T16:09:23.246Z,26.87
2023-01-17T16:12:08.871Z,20.97
2023-01-17T16:15:11.324Z,19.97
2023-01-17T16:17:58.829Z,20.73
2023-01-17T16:20:48.450Z,18.60
2023-01-17T16:23:31.824Z,21.50
2023-01-17T16:26:18.861Z,22.13
2023-01-17T16:29:02.382Z,16.37
2023-01-17T16:31:47.577Z,15.23
2023-01-17T16:34:39.784Z,20.53
2023-01-17T16:37:24.295Z,17.77
2023-01-17T16:40:09.116Z,16.60
2023-01-17T16:42:52.938Z,17.70
2023-01-17T16:45:41.246Z,17.00
2023-01-17T16:48:24.617Z,19.90
2023-01-17T16:51:09.197Z,18.70
2023-01-17T16:53:53.704Z,18.33
2023-01-17T16:56:36.864Z,13.80
2023-01-17T17:02:18.770Z,23.53
2023-01-17T17:05:04.380Z,27.10
2023-01-17T17:07:51.538Z,21.00
2023-01-17T17:10:36.396Z,33.33
2023-01-17T17:13:21.908Z,19.10
2023-01-17T17:16:10.938Z,18.07
2023-01-17T17:19:01.737Z,21.93
2023-01-17T17:21:44.811Z,19.73
2023-01-17T17:24:28.169Z,27.97
2023-01-17T17:27:12.885Z,19.53
2023-01-17T17:29:58.748Z,19.83
2023-01-17T17:32:41.998Z,16.33
2023-01-17T17:35:32.227Z,15.63
2023-01-17T17:38:17.628Z,17.47
2023-01-17T17:41:06.565Z,38.63
2023-01-17T17:43:52.290Z,28.40
2023-01-17T17:46:38.615Z,13.70
2023-01-17T17:49:22.725Z,18.43
2023-01-17T17:52:06.798Z,9.73
2023-01-17T17:54:50.006Z,11.07
2023-01-17T17:57:36.674Z,9.40
2023-01-17T18:00:23.519Z,10.27
2023-01-17T18:03:07.373Z,9.27
2023-01-17T18:05:50.431Z,9.40
2023-01-17T18:08:33.976Z,18.20
2023-01-17T18:11:21.317Z,20.27
2023-01-17T18:14:06.660Z,18.10
2023-01-17T18:16:54.462Z,20.63
2023-01-17T18:19:38.158Z,29.47
2023-01-17T18:22:21.281Z,25.87
2023-01-17T18:25:04.885Z,17.17
2023-01-17T18:27:48.033Z,19.03
2023-01-17T18:30:35.062Z,17.37
2023-01-17T18:33:21.375Z,15.80
2023-01-17T18:36:05.355Z,19.30
2023-01-17T18:38:52.358Z,19.63
2023-01-17T18:41:35.577Z,22.27
2023-01-17T18:44:21.812Z,20.27
2023-01-17T18:47:05.692Z,17.03
2023-01-17T18:49:53.702Z,13.73
2023-01-17T18:52:38.823Z,10.90
2023-01-17T18:55:22.964Z,11.10
2023-01-17T18:58:06.110Z,11.17
2023-01-17T19:00:50.932Z,9.90
2023-01-17T19:03:34.498Z,9.60
2023-01-17T19:06:21.526Z,8.60
2023-01-17T19:09:05.489Z,9.13
2023-01-17T19:11:53.215Z,9.97
2023-01-17T19:14:36.606Z,8.83
2023-01-17T19:17:19.788Z,9.10
2023-01-17T19:20:02.926Z,9.30
2023-01-17T19:22:49.841Z,8.40
2023-01-17T19:25:37.689Z,9.73
2023-01-17T19:28:20.793Z,9.33
2023-01-17T19:31:05.336Z,8.20
2023-01-17T19:33:51.997Z,8.63
2023-01-17T19:36:37.502Z,8.43
2023-01-17T19:39:25.919Z,7.00
2023-01-17T19:42:15.438Z,7.13
2023-01-17T19:44:58.535Z,7.87
2023-01-17T19:47:42.087Z,7.37
2023-01-17T19:50:25.105Z,8.50
2023-01-17T19:53:14.066Z,11.63
2023-01-17T19:55:58.968Z,10.23
2023-01-17T19:58:43.861Z,8.57
2023-01-17T20:01:30.350Z,7.80
2023-01-17T20:04:15.840Z,7.47
2023-01-17T20:06:59.006Z,8.20
2023-01-17T20:09:49.416Z,11.10
2023-01-17T20:12:37.348Z,7.93
2023-01-17T20:15:20.666Z,7.53
2023-01-17T20:18:03.848Z,7.33
2023-01-17T20:20:57.036Z,7.60
2023-01-17T20:23:45.676Z,7.27
2023-01-17T20:26:38.343Z,9.40
2023-01-17T20:29:25.536Z,6.90
2023-01-17T20:32:11.274Z,7.40
2023-01-17T20:34:54.684Z,8.93
2023-01-17T20:37:38.229Z,9.67
2023-01-17T20:40:23.418Z,8.57
2023-01-17T20:43:06.514Z,8.03
2023-01-17T20:45:57.455Z,8.30
2023-01-17T20:48:47.808Z,7.13
2023-01-17T20:51:31.536Z,7.53
2023-01-17T20:54:16.517Z,7.10
2023-01-17T20:57:01.413Z,8.43
2023-01-17T20:59:45.901Z,7.23
2023-01-17T21:02:30.524Z,7.23
2023-01-17T21:05:13.622Z,8.03
2023-01-17T21:07:57.219Z,7.50
2023-01-17T21:10:41.622Z,8.00
2023-01-17T21:13:24.774Z,7.03
2023-01-17T21:16:11.855Z,6.67
2023-01-17T21:18:57.449Z,7.23
2023-01-17T21:21:41.279Z,11.47
2023-01-17T21:24:24.561Z,8.80
2023-01-17T21:27:07.654Z,8.43
2023-01-17T21:29:55.387Z,7.37
2023-01-17T21:32:40.748Z,7.30
2023-01-17T21:35:29.857Z,7.63
2023-01-17T21:38:13.976Z,7.63
2023-01-17T21:40:59.217Z,7.50
2023-01-17T21:43:42.246Z,8.40
2023-01-17T21:46:26.199Z,6.83
2023-01-17T21:49:12.458Z,6.90
2023-01-17T21:52:17.386Z,7.97
2023-01-17T21:55:18.106Z,7.13
2023-01-17T21:58:19.055Z,7.77
2023-01-17T22:01:11.180Z,6.30
2023-01-17T22:04:00.388Z,6.20
2023-01-17T22:06:43.473Z,6.30
2023-01-17T22:09:27.920Z,7.30
2023-01-17T22:12:12.026Z,5.97
2023-01-17T22:14:55.404Z,6.87
2023-01-17T22:17:41.968Z,6.40
2023-01-17T22:20:25.335Z,6.27
2023-01-17T22:23:09.567Z,6.60
2023-01-17T22:25:54.018Z,6.37
2023-01-17T22:28:37.958Z,7.27
2023-01-17T22:31:25.983Z,6.17
2023-01-17T22:34:09.086Z,7.10
2023-01-17T22:36:52.105Z,5.93
2023-01-17T22:39:35.192Z,6.57
2023-01-17T22:42:20.295Z,6.57
2023-01-17T22:45:03.359Z,5.90
2023-01-17T22:47:46.462Z,7.57
2023-01-17T22:50:29.559Z,6.80
2023-01-17T22:53:12.728Z,6.30
2023-01-17T22:56:05.790Z,7.13
2023-01-17T22:58:50.764Z,5.50
2023-01-17T23:01:34.055Z,7.07
2023-01-17T23:04:17.354Z,6.80
2023-01-17T23:07:00.763Z,6.93
2023-01-17T23:09:43.939Z,7.70
2023-01-17T23:12:29.513Z,6.73
2023-01-17T23:15:32.589Z,6.40
2023-01-17T23:18:33.258Z,7.53
2023-01-17T23:21:17.581Z,7.90
2023-01-17T23:24:00.667Z,6.73
2023-01-17T23:27:03.731Z,7.37
2023-01-17T23:29:45.878Z,8.63
2023-01-17T23:32:30.396Z,6.23
2023-01-17T23:35:13.910Z,7.03
2023-01-17T23:38:15.113Z,5.70
2023-01-17T23:41:22.425Z,8.03
2023-01-17T23:44:05.536Z,6.07
2023-01-17T23:46:50.838Z,9.30
2023-01-17T23:49:35.354Z,8.20
2023-01-17T23:52:19.609Z,6.47
2023-01-17T23:55:04.720Z,12.97
2023-01-17T23:57:50.357Z,6.83
